Time;durP1;ratioP1;P1;durP2;ratioP2;P2;SDS_P1;SDS_P2;PMS_P1;PMS_P2;Temp;Humidity;BMP_temperature;BMP_pressure;BME280_temperature;BME280_humidity;BME280_pressure;Samples;Min_cycle;Max_cycle;Signal;HPM_P1;HPM_P2
2023/05/20 00:01:01;;;;;;;9.73;5.30;;;13.60;1.00;;;;;;5096521;28;20171;-71
2023/05/20 00:03:28;;;;;;;6.07;4.93;;;13.60;1.00;;;;;;5096518;28;20175;-70
2023/05/20 00:05:54;;;;;;;7.03;4.93;;;13.60;1.00;;;;;;5096439;28;20267;-70
2023/05/20 00:08:19;;;;;;;8.03;5.20;;;13.60;1.00;;;;;;5094693;28;20278;-71
2023/05/20 00:10:45;;;;;;;6.70;5.20;;;13.60;1.00;;;;;;5096411;28;20669;-71
2023/05/20 00:13:11;;;;;;;7.93;5.40;;;13.60;1.00;;;;;;5096067;28;20164;-71
2023/05/20 00:15:37;;;;;;;7.57;5.43;;;13.60;1.00;;;;;;5096411;28;20186;-71
2023/05/20 00:18:02;;;;;;;11.40;5.20;;;13.60;1.00;;;;;;5096260;28;20175;-70
2023/05/20 00:20:28;;;;;;;6.73;5.63;;;13.50;1.00;;;;;;5096181;28;20172;-71
2023/05/20 00:22:54;;;;;;;8.23;5.50;;;13.50;1.00;;;;;;5095924;28;20654;-71
2023/05/20 00:25:20;;;;;;;9.70;5.70;;;13.40;1.00;;;;;;5096113;28;20168;-71
2023/05/20 00:27:46;;;;;;;6.60;5.60;;;13.40;1.00;;;;;;5095807;28;20225;-70
2023/05/20 00:30:11;;;;;;;7.23;5.20;;;13.40;1.00;;;;;;5096227;28;20167;-70
2023/05/20 00:32:37;;;;;;;5.90;5.13;;;13.30;1.00;;;;;;5094527;28;20230;-71
2023/05/20 00:35:03;;;;;;;9.20;5.40;;;13.30;1.00;;;;;;5095862;28;20235;-70
2023/05/20 00:37:29;;;;;;;11.10;5.87;;;13.30;1.00;;;;;;5095468;28;20703;-70
2023/05/20 00:39:54;;;;;;;6.93;5.23;;;13.20;1.00;;;;;;5095777;28;20247;-69
2023/05/20 00:42:24;;;;;;;6.10;5.50;;;13.20;1.00;;;;;;5095679;28;20624;-69
2023/05/20 00:44:50;;;;;;;8.03;5.97;;;13.20;1.00;;;;;;5094929;28;20255;-70
2023/05/20 00:47:18;;;;;;;11.97;5.73;;;13.20;1.00;;;;;;5095037;28;20192;-70
2023/05/20 00:49:48;;;;;;;8.43;5.90;;;13.10;1.00;;;;;;5095349;28;20374;-69
2023/05/20 00:52:15;;;;;;;10.90;6.23;;;13.10;1.00;;;;;;5093709;28;20213;-69
2023/05/20 00:54:41;;;;;;;9.90;5.37;;;13.10;1.00;;;;;;5094983;28;20329;-71
2023/05/20 00:57:08;;;;;;;13.43;6.00;;;13.00;1.00;;;;;;5095140;28;20246;-69
2023/05/20 00:59:35;;;;;;;9.17;5.90;;;13.00;1.00;;;;;;5095134;28;20164;-71
2023/05/20 01:02:03;;;;;;;6.70;5.70;;;13.00;2.10;;;;;;5093695;28;20205;-70
2023/05/20 01:04:29;;;;;;;9.63;5.97;;;13.00;2.00;;;;;;5095331;28;20175;-70
2023/05/20 01:06:56;;;;;;;7.70;5.87;;;12.90;1.40;;;;;;5094916;28;20180;-71
2023/05/20 01:09:23;;;;;;;7.37;5.73;;;12.90;2.90;;;;;;5095028;28;20184;-69
2023/05/20 01:12:02;;;;;;;6.73;6.00;;;12.90;3.40;;;;;;5095270;28;20172;-71
2023/05/20 01:14:35;;;;;;;7.37;5.23;;;12.80;5.10;;;;;;5095191;28;20203;-70
2023/05/20 01:17:08;;;;;;;7.57;5.83;;;12.80;4.70;;;;;;5094120;28;20195;-70
2023/05/20 01:19:44;;;;;;;8.37;5.97;;;12.70;5.90;;;;;;5095289;28;20183;-71
2023/05/20 01:22:12;;;;;;;7.63;5.67;;;12.70;8.20;;;;;;5094875;28;20176;-71
2023/05/20 01:24:43;;;;;;;7.93;5.60;;;12.70;8.50;;;;;;5094974;28;20229;-71
2023/05/20 01:27:12;;;;;;;10.97;5.90;;;12.60;8.70;;;;;;5095029;28;20233;-70
2023/05/20 01:29:39;;;;;;;10.40;5.93;;;12.60;10.60;;;;;;5093654;28;20168;-71
2023/05/20 01:32:14;;;;;;;9.43;5.93;;;12.60;12.00;;;;;;5094715;28;20243;-70
2023/05/20 01:34:41;;;;;;;11.83;7.37;;;12.50;13.40;;;;;;5094713;28;20261;-69
2023/05/20 01:37:07;;;;;;;11.97;8.27;;;12.50;13.50;;;;;;5094333;28;20184;-70
2023/05/20 01:39:36;;;;;;;11.47;8.53;;;12.50;12.60;;;;;;5094949;28;20180;-70
2023/05/20 01:42:03;;;;;;;14.03;11.33;;;12.50;13.80;;;;;;5095000;28;20250;-70
2023/05/20 01:44:29;;;;;;;21.93;14.43;;;12.40;15.00;;;;;;5094813;28;20172;-71
2023/05/20 01:46:55;;;;;;;19.70;14.70;;;12.40;16.10;;;;;;5094688;28;20599;-70
2023/05/20 01:49:20;;;;;;;25.63;17.07;;;12.40;16.10;;;;;;5094626;28;20175;-71
2023/05/20 01:51:46;;;;;;;24.37;16.03;;;12.40;17.80;;;;;;5094611;28;20171;-70
2023/05/20 01:54:12;;;;;;;19.83;15.23;;;12.30;18.90;;;;;;5094396;28;20207;-70
2023/05/20 01:56:37;;;;;;;16.50;11.77;;;12.30;20.60;;;;;;5094135;28;20209;-70
2023/05/20 01:59:03;;;;;;;15.23;11.90;;;12.20;22.00;;;;;;5094396;28;20693;-69
2023/05/20 02:01:29;;;;;;;25.67;10.80;;;12.20;22.90;;;;;;5094365;28;20167;-70
2023/05/20 02:03:54;;;;;;;13.23;8.07;;;12.20;22.70;;;;;;5094042;28;20217;-69
2023/05/20 02:06:20;;;;;;;10.40;6.63;;;12.20;21.40;;;;;;5094374;28;20697;-69
2023/05/20 02:08:45;;;;;;;8.90;6.80;;;12.20;20.70;;;;;;5094073;28;20183;-69
2023/05/20 02:11:11;;;;;;;8.57;6.70;;;12.10;22.60;;;;;;5092969;28;20634;-69
2023/05/20 02:13:37;;;;;;;7.33;6.17;;;12.10;22.80;;;;;;5094081;28;20203;-69
2023/05/20 02:16:03;;;;;;;8.10;5.60;;;12.10;23.00;;;;;;5094124;28;20160;-69
2023/05/20 02:18:29;;;;;;;9.03;5.70;;;12.00;24.00;;;;;;5093840;28;20627;-69
2023/05/20 02:20:54;;;;;;;6.80;5.30;;;12.00;24.10;;;;;;5094030;28;20555;-70
2023/05/20 02:23:20;;;;;;;6.27;5.50;;;12.00;23.30;;;;;;5093781;28;20187;-71
2023/05/20 02:25:45;;;;;;;8.93;5.57;;;12.00;23.10;;;;;;5093488;28;20578;-72
2023/05/20 02:28:11;;;;;;;5.83;4.83;;;11.90;24.20;;;;;;5092576;28;20176;-71
2023/05/20 02:30:37;;;;;;;5.87;5.10;;;11.90;24.90;;;;;;5093428;28;20571;-71
2023/05/20 02:33:03;;;;;;;8.40;4.77;;;11.80;25.10;;;;;;5093501;28;20186;-71
2023/05/20 02:35:29;;;;;;;6.83;5.40;;;11.80;25.90;;;;;;5092504;28;20179;-70
2023/05/20 02:37:55;;;;;;;6.07;4.93;;;11.80;25.70;;;;;;5093680;28;20257;-71
2023/05/20 02:40:21;;;;;;;8.17;5.00;;;11.80;27.00;;;;;;5093783;28;20233;-71
2023/05/20 02:42:47;;;;;;;7.50;5.10;;;11.70;27.90;;;;;;5093702;28;20255;-71
2023/05/20 02:45:13;;;;;;;7.80;5.33;;;11.70;28.80;;;;;;5093682;28;20207;-70
2023/05/20 02:47:38;;;;;;;7.80;5.20;;;11.60;31.30;;;;;;5093295;28;20168;-70
2023/05/20 02:50:05;;;;;;;8.63;5.07;;;11.60;32.40;;;;;;5093672;28;20225;-70
2023/05/20 02:52:31;;;;;;;9.53;5.33;;;11.60;33.00;;;;;;5092335;28;20221;-71
2023/05/20 02:54:57;;;;;;;7.63;5.33;;;11.60;33.80;;;;;;5093419;28;20211;-70
2023/05/20 02:57:23;;;;;;;8.03;5.10;;;11.60;35.70;;;;;;5093340;28;20634;-70
2023/05/20 02:59:48;;;;;;;7.77;4.97;;;11.60;36.40;;;;;;5093197;28;20168;-70
2023/05/20 03:02:14;;;;;;;8.17;5.27;;;11.60;36.50;;;;;;5091749;28;20242;-70
2023/05/20 03:04:40;;;;;;;8.43;5.23;;;11.60;37.40;;;;;;5093260;28;20175;-70
2023/05/20 03:07:08;;;;;;;7.37;5.10;;;11.60;39.50;;;;;;5093284;28;20695;-71
2023/05/20 03:09:34;;;;;;;8.27;5.53;;;11.50;42.20;;;;;;5092445;28;20176;-70
2023/05/20 03:12:00;;;;;;;8.27;5.10;;;11.50;43.30;;;;;;5093110;28;20178;-71
2023/05/20 03:14:26;;;;;;;7.13;5.17;;;11.50;45.80;;;;;;5093028;28;20226;-70
2023/05/20 03:16:54;;;;;;;10.87;5.37;;;11.40;47.30;;;;;;5092881;28;20305;-70
2023/05/20 03:19:20;;;;;;;7.70;5.13;;;11.40;48.50;;;;;;5092872;28;20176;-70
2023/05/20 03:21:46;;;;;;;7.53;5.07;;;11.40;50.50;;;;;;5092997;28;20168;-70
2023/05/20 03:24:12;;;;;;;6.67;5.00;;;11.40;50.70;;;;;;5093047;28;20174;-70
2023/05/20 03:26:41;;;;;;;7.33;5.37;;;11.30;52.10;;;;;;5092916;28;20168;-70
2023/05/20 03:29:09;;;;;;;6.40;5.03;;;11.30;53.20;;;;;;5092874;28;20163;-70
2023/05/20 03:31:35;;;;;;;11.87;5.57;;;11.30;54.20;;;;;;5092107;28;20235;-70
2023/05/20 03:34:00;;;;;;;10.00;5.37;;;11.30;56.50;;;;;;5092765;28;20261;-70
2023/05/20 03:36:27;;;;;;;11.70;6.10;;;11.30;57.70;;;;;;5091743;28;20178;-70
2023/05/20 03:38:52;;;;;;;6.47;5.23;;;11.30;59.30;;;;;;5092679;28;20258;-71
2023/05/20 03:41:18;;;;;;;7.40;5.60;;;11.30;61.10;;;;;;5091656;28;20187;-69
2023/05/20 03:43:44;;;;;;;13.03;6.10;;;11.20;63.90;;;;;;5092418;28;20172;-70
2023/05/20 03:46:09;;;;;;;9.07;5.50;;;11.20;66.70;;;;;;5092379;28;20160;-69
2023/05/20 03:48:35;;;;;;;8.43;5.70;;;11.20;71.10;;;;;;5092429;28;20651;-71
2023/05/20 03:51:01;;;;;;;9.90;6.00;;;11.20;70.20;;;;;;5091286;28;20570;-71
2023/05/20 03:53:26;;;;;;;10.73;5.67;;;11.20;72.20;;;;;;5091092;28;20196;-71
2023/05/20 03:55:52;;;;;;;9.40;6.27;;;11.20;72.80;;;;;;5092624;28;20203;-71
2023/05/20 03:58:19;;;;;;;10.23;5.73;;;11.20;73.50;;;;;;5092273;28;20172;-70
2023/05/20 04:00:46;;;;;;;6.77;5.63;;;11.20;74.10;;;;;;5092400;28;20650;-71
2023/05/20 04:03:11;;;;;;;8.07;5.57;;;11.20;73.50;;;;;;5092324;28;20190;-70
2023/05/20 04:05:37;;;;;;;7.03;5.97;;;11.20;74.10;;;;;;5092688;28;20176;-71
2023/05/20 04:08:03;;;;;;;10.23;6.50;;;11.30;73.90;;;;;;5092663;28;20667;-70
2023/05/20 04:10:33;;;;;;;8.87;5.50;;;11.40;70.90;;;;;;5092878;28;20186;-70
2023/05/20 04:12:59;;;;;;;10.87;5.57;;;11.50;65.60;;;;;;5092174;28;20590;-71
2023/05/20 04:15:24;;;;;;;10.63;5.90;;;11.60;58.90;;;;;;5090902;28;20559;-71
2023/05/20 04:17:51;;;;;;;9.60;6.10;;;11.90;57.10;;;;;;5092520;28;20637;-71
2023/05/20 04:20:17;;;;;;;9.87;5.90;;;12.20;48.30;;;;;;5093946;28;20223;-71
2023/05/20 04:22:47;;;;;;;9.03;5.23;;;12.50;38.00;;;;;;5096172;28;20210;-71
2023/05/20 04:25:13;;;;;;;9.43;5.73;;;12.80;25.50;;;;;;5095908;28;20180;-71
2023/05/20 04:27:39;;;;;;;10.93;5.43;;;13.20;21.10;;;;;;5094737;28;20211;-72
2023/05/20 04:30:05;;;;;;;8.63;5.53;;;13.90;5.80;;;;;;5095754;28;20546;-71
2023/05/20 04:32:35;;;;;;;8.70;5.20;;;14.40;1.00;;;;;;5095850;28;20224;-71
2023/05/20 04:35:01;;;;;;;14.63;5.13;;;14.90;1.00;;;;;;5095656;28;20294;-71
2023/05/20 04:37:27;;;;;;;10.10;5.60;;;15.30;1.00;;;;;;5095913;28;20255;-71
2023/05/20 04:39:53;;;;;;;6.33;5.23;;;15.80;1.00;;;;;;5095477;28;20228;-72
2023/05/20 04:42:21;;;;;;;9.83;4.90;;;15.80;1.00;;;;;;5095500;28;20254;-72
2023/05/20 04:44:47;;;;;;;9.73;4.90;;;15.60;1.00;;;;;;5095143;28;20171;-72
2023/05/20 04:47:14;;;;;;;8.17;4.90;;;15.80;1.00;;;;;;5095801;28;20170;-72
2023/05/20 04:49:40;;;;;;;11.83;5.17;;;15.80;1.00;;;;;;5093915;28;20187;-73
2023/05/20 04:52:06;;;;;;;8.20;4.73;;;16.00;1.00;;;;;;5095455;28;20168;-72
2023/05/20 04:54:31;;;;;;;8.63;5.00;;;16.70;1.00;;;;;;5095460;28;20204;-72
2023/05/20 04:56:57;;;;;;;13.23;5.07;;;17.00;1.00;;;;;;5095232;28;20217;-72
2023/05/20 04:59:23;;;;;;;7.60;5.43;;;17.00;1.00;;;;;;5093795;28;20180;-72
2023/05/20 05:01:49;;;;;;;8.67;5.00;;;17.80;1.00;;;;;;5095270;28;20171;-71
2023/05/20 05:04:14;;;;;;;5.00;4.60;;;18.40;99.90;;;;;;5094166;28;20187;-72
2023/05/20 05:06:40;;;;;;;7.33;4.87;;;17.50;1.00;;;;;;5093681;28;20266;-71
2023/05/20 05:09:06;;;;;;;6.53;4.93;;;17.70;1.00;;;;;;5094831;28;20226;-73
2023/05/20 05:11:32;;;;;;;7.10;4.32;;;17.70;1.00;;;;;;5095115;28;20171;-72
2023/05/20 05:13:58;;;;;;;5.07;4.43;;;18.20;1.00;;;;;;5093247;28;20233;-72
2023/05/20 05:16:24;;;;;;;6.18;5.13;;;18.40;99.90;;;;;;5094521;28;20207;-71
2023/05/20 05:18:50;;;;;;;7.72;4.47;;;18.40;99.90;;;;;;5093856;28;20700;-72
2023/05/20 05:21:15;;;;;;;9.45;4.70;;;19.00;99.90;;;;;;5094883;28;20176;-73
2023/05/20 05:23:41;;;;;;;9.65;5.05;;;19.40;1.00;;;;;;5094564;28;20167;-74
2023/05/20 05:26:07;;;;;;;8.25;4.88;;;20.00;1.00;;;;;;5094593;28;20176;-72
2023/05/20 05:28:33;;;;;;;7.45;4.63;;;18.70;19.00;;;;;;5094463;28;20179;-72
2023/05/20 05:30:58;;;;;;;9.38;4.55;;;18.90;99.90;;;;;;5094291;28;20224;-73
2023/05/20 05:33:24;;;;;;;10.20;4.90;;;18.90;1.80;;;;;;5094483;28;20168;-74
2023/05/20 05:35:50;;;;;;;6.82;5.10;;;18.90;99.90;;;;;;5095066;28;20168;-72
2023/05/20 05:38:16;;;;;;;8.38;4.85;;;19.10;41.30;;;;;;5094183;28;20724;-72
2023/05/20 05:40:41;;;;;;;10.57;5.07;;;19.00;37.40;;;;;;5093994;28;20510;-73
2023/05/20 05:43:07;;;;;;;5.85;4.93;;;19.40;1.00;;;;;;5093046;28;20168;-74
2023/05/20 05:45:33;;;;;;;6.43;4.60;;;19.60;1.00;;;;;;5094432;28;20247;-74
2023/05/20 05:47:58;;;;;;;5.15;4.60;;;19.60;55.10;;;;;;5094034;28;20251;-73
2023/05/20 05:50:24;;;;;;;7.85;4.85;;;19.30;99.90;;;;;;5092585;28;20570;-73
2023/05/20 05:52:49;;;;;;;8.05;4.68;;;20.00;1.00;;;;;;5094013;28;20172;-72
2023/05/20 05:55:17;;;;;;;9.10;5.10;;;19.70;99.90;;;;;;5094344;28;20576;-74
2023/05/20 05:57:42;;;;;;;9.70;5.20;;;19.20;1.00;;;;;;5094096;28;20634;-73
2023/05/20 06:00:08;;;;;;;12.27;5.13;;;19.50;95.80;;;;;;5094280;28;20174;-74
2023/05/20 06:02:34;;;;;;;6.55;4.70;;;19.70;1.00;;;;;;5094548;28;20176;-75
2023/05/20 06:05:02;;;;;;;7.13;5.07;;;19.80;1.00;;;;;;5094472;28;20298;-74
2023/05/20 06:07:28;;;;;;;8.23;4.95;;;19.80;99.90;;;;;;5092335;28;20191;-73
2023/05/20 06:09:53;;;;;;;6.45;4.88;;;20.20;30.30;;;;;;5094263;28;20175;-74
2023/05/20 06:12:19;;;;;;;8.38;5.18;;;20.30;85.40;;;;;;5093734;28;20168;-74
2023/05/20 06:14:46;;;;;;;7.65;5.38;;;20.80;99.90;;;;;;5093673;28;20701;-74
2023/05/20 06:17:12;;;;;;;10.18;4.72;;;21.40;99.90;;;;;;5093119;28;20167;-74
2023/05/20 06:19:37;;;;;;;6.78;4.88;;;21.90;1.00;;;;;;5092700;28;20168;-74
2023/05/20 06:22:03;;;;;;;9.88;4.88;;;22.00;1.00;;;;;;5093449;28;20508;-74
2023/05/20 06:24:29;;;;;;;8.30;4.85;;;21.00;99.90;;;;;;5093538;28;20251;-74
2023/05/20 06:26:55;;;;;;;5.78;5.05;;;21.60;99.90;;;;;;5093176;28;20217;-74
2023/05/20 06:29:21;;;;;;;9.25;5.05;;;20.70;1.00;;;;;;5093405;28;20176;-72
2023/05/20 06:31:46;;;;;;;5.35;4.70;;;21.00;1.00;;;;;;5093035;28;20224;-72
2023/05/20 06:34:12;;;;;;;6.65;4.57;;;21.60;99.90;;;;;;5093460;28;20291;-73
2023/05/20 06:36:37;;;;;;;6.53;4.57;;;21.40;1.00;;;;;;5092615;28;20216;-73
2023/05/20 06:39:05;;;;;;;5.75;4.82;;;21.20;1.00;;;;;;5092055;28;20213;-73
2023/05/20 06:41:30;;;;;;;6.97;4.70;;;22.40;99.90;;;;;;5093295;28;20222;-73
2023/05/20 06:43:56;;;;;;;4.78;4.38;;;23.20;1.00;;;;;;5093117;28;20164;-73
2023/05/20 06:46:22;;;;;;;6.95;4.53;;;22.20;1.00;;;;;;5093373;28;20566;-73
2023/05/20 06:48:47;;;;;;;6.57;4.80;;;22.70;1.00;;;;;;5093036;28;20171;-72
2023/05/20 06:51:13;;;;;;;10.68;4.47;;;23.70;1.00;;;;;;5093045;28;20164;-72
2023/05/20 06:53:38;;;;;;;8.02;4.68;;;23.70;1.00;;;;;;5092999;28;20644;-73
2023/05/20 06:56:04;;;;;;;4.85;4.38;;;23.40;99.90;;;;;;5092584;28;20180;-72
2023/05/20 06:58:30;;;;;;;6.22;4.43;;;22.20;1.00;;;;;;5092271;28;20191;-73
2023/05/20 07:00:55;;;;;;;5.80;4.47;;;21.90;1.00;;;;;;5092658;28;20171;-72
2023/05/20 07:03:22;;;;;;;8.73;4.72;;;22.70;99.90;;;;;;5092822;28;20164;-72
2023/05/20 07:05:56;;;;;;;6.57;4.70;;;22.40;1.00;;;;;;5092788;28;20203;-72
2023/05/20 07:08:21;;;;;;;6.35;4.93;;;22.30;10.50;;;;;;5092924;28;20194;-73
2023/05/20 07:10:47;;;;;;;4.43;4.03;;;22.50;1.00;;;;;;5093229;28;20168;-73
2023/05/20 07:13:13;;;;;;;5.10;4.50;;;21.70;1.00;;;;;;5090937;28;20255;-73
2023/05/20 07:15:38;;;;;;;6.55;4.38;;;21.60;1.00;;;;;;5092806;28;20216;-73
2023/05/20 07:18:04;;;;;;;6.35;4.70;;;21.60;99.90;;;;;;5092978;28;20533;-72
2023/05/20 07:20:30;;;;;;;6.78;4.68;;;21.90;25.10;;;;;;5092500;28;20630;-73
2023/05/20 07:22:55;;;;;;;5.30;4.20;;;23.20;1.00;;;;;;5092429;28;20168;-73
2023/05/20 07:25:21;;;;;;;5.00;4.50;;;23.10;47.20;;;;;;5092877;28;20176;-73
2023/05/20 07:27:47;;;;;;;5.38;4.05;;;23.20;1.00;;;;;;5092897;28;20562;-71
2023/05/20 07:30:12;;;;;;;5.15;3.88;;;23.70;1.00;;;;;;5093027;28;20179;-72
2023/05/20 07:32:38;;;;;;;4.65;4.13;;;24.00;99.90;;;;;;5092097;28;20220;-73
2023/05/20 07:35:04;;;;;;;4.60;4.15;;;23.90;99.90;;;;;;5092471;28;20293;-72
2023/05/20 07:37:30;;;;;;;6.07;4.43;;;23.80;99.90;;;;;;5092410;28;20641;-72
2023/05/20 07:39:55;;;;;;;4.75;4.28;;;23.30;1.00;;;;;;5092749;28;20176;-72
2023/05/20 07:42:21;;;;;;;5.75;3.92;;;23.50;1.00;;;;;;5092276;28;20168;-72
2023/05/20 07:44:47;;;;;;;4.20;3.65;;;22.90;1.00;;;;;;5092869;28;20171;-71
2023/05/20 07:47:13;;;;;;;4.80;4.30;;;22.70;99.90;;;;;;5090575;28;20660;-73
2023/05/20 07:49:38;;;;;;;4.97;3.97;;;23.00;99.90;;;;;;5092245;28;20200;-72
2023/05/20 07:52:04;;;;;;;5.95;3.90;;;23.30;1.00;;;;;;5092349;28;20257;-72
2023/05/20 07:54:30;;;;;;;4.85;4.00;;;24.00;99.90;;;;;;5092488;28;20208;-73
2023/05/20 07:56:56;;;;;;;5.05;3.85;;;23.20;1.00;;;;;;5096621;28;20159;-73
2023/05/20 07:59:21;;;;;;;4.07;3.72;;;22.80;99.90;;;;;;5095847;28;20179;-73
2023/05/20 08:01:47;;;;;;;4.57;3.88;;;22.50;99.90;;;;;;5096732;28;20242;-72
2023/05/20 08:04:12;;;;;;;9.82;3.90;;;22.40;99.90;;;;;;5096050;28;20256;-73
2023/05/20 08:06:38;;;;;;;5.63;4.18;;;22.40;1.00;;;;;;5095668;28;20179;-73
2023/05/20 08:09:04;;;;;;;5.50;4.05;;;22.40;99.90;;;;;;5096075;28;20200;-73
2023/05/20 08:11:29;;;;;;;4.43;4.03;;;23.20;65.70;;;;;;5096039;28;20175;-73
2023/05/20 08:13:55;;;;;;;3.60;3.40;;;23.10;1.00;;;;;;5096377;28;20195;-72
2023/05/20 08:16:21;;;;;;;5.28;3.88;;;23.20;99.90;;;;;;5096032;28;20498;-71
2023/05/20 08:18:46;;;;;;;3.65;3.35;;;23.20;1.00;;;;;;5095281;28;20269;-73
2023/05/20 08:21:12;;;;;;;3.78;3.35;;;23.30;99.90;;;;;;5094609;28;20691;-73
2023/05/20 08:23:39;;;;;;;3.80;3.50;;;23.40;99.90;;;;;;5095886;28;20263;-71
2023/05/20 08:26:04;;;;;;;4.65;4.00;;;23.60;99.90;;;;;;5095810;28;20164;-72
2023/05/20 08:28:30;;;;;;;4.93;3.60;;;23.00;1.00;;;;;;5095585;28;20699;-72
2023/05/20 08:30:57;;;;;;;8.23;3.63;;;23.30;99.90;;;;;;5095037;28;20223;-73
2023/05/20 08:33:23;;;;;;;4.35;3.10;;;23.30;99.90;;;;;;5096138;28;20179;-73
2023/05/20 08:35:48;;;;;;;4.95;3.20;;;23.30;1.00;;;;;;5095228;28;20203;-72
2023/05/20 08:38:15;;;;;;;4.68;3.72;;;22.90;66.00;;;;;;5095549;28;20195;-71
2023/05/20 08:40:40;;;;;;;6.53;3.55;;;23.00;68.70;;;;;;5095563;28;20168;-72
2023/05/20 08:43:06;;;;;;;6.22;4.05;;;23.50;68.70;;;;;;5095019;28;20171;-72
2023/05/20 08:45:33;;;;;;;4.15;3.55;;;23.30;68.00;;;;;;5095889;28;20163;-72
2023/05/20 08:48:00;;;;;;;4.95;3.50;;;23.50;69.20;;;;;;5095615;28;20202;-72
2023/05/20 08:50:26;;;;;;;4.57;3.60;;;23.80;66.90;;;;;;5094166;28;20175;-72
2023/05/20 08:52:52;;;;;;;4.57;3.38;;;23.90;64.80;;;;;;5095103;28;20539;-72
2023/05/20 08:55:25;;;;;;;5.32;3.03;;;23.90;64.40;;;;;;5095161;28;20283;-72
2023/05/20 08:57:54;;;;;;;3.50;3.17;;;23.30;64.60;;;;;;5095159;28;20247;-72
2023/05/20 09:00:27;;;;;;;6.93;3.28;;;22.90;65.50;;;;;;5095183;28;20168;-72
2023/05/20 09:02:53;;;;;;;6.80;3.13;;;22.00;1.00;;;;;;5095518;28;20167;-72
2023/05/20 09:05:20;;;;;;;7.72;3.20;;;21.60;19.20;;;;;;5094175;28;20175;-71
2023/05/20 09:07:46;;;;;;;3.78;3.10;;;22.00;1.00;;;;;;5093821;28;20188;-72
2023/05/20 09:10:12;;;;;;;6.43;3.08;;;21.80;99.90;;;;;;5094926;28;20175;-72
2023/05/20 09:12:38;;;;;;;7.18;3.60;;;22.40;1.00;;;;;;5094982;28;20179;-71
2023/05/20 09:15:04;;;;;;;7.30;3.70;;;22.80;1.00;;;;;;5094681;28;20735;-71
2023/05/20 09:17:30;;;;;;;4.93;3.17;;;23.50;99.90;;;;;;5094257;28;20172;-72
2023/05/20 09:19:55;;;;;;;4.05;3.40;;;23.90;65.60;;;;;;5094443;28;20168;-72
2023/05/20 09:22:26;;;;;;;3.15;2.85;;;23.80;65.40;;;;;;5094475;28;20187;-71
2023/05/20 09:24:52;;;;;;;3.75;3.30;;;23.10;67.60;;;;;;5094821;28;20178;-71
2023/05/20 09:27:21;;;;;;;5.90;3.33;;;22.80;1.00;;;;;;5094560;28;20168;-71
2023/05/20 09:29:47;;;;;;;6.47;3.28;;;23.20;37.80;;;;;;5094297;28;20259;-72
2023/05/20 09:32:14;;;;;;;5.90;3.40;;;24.10;66.20;;;;;;5094675;28;20224;-73
2023/05/20 09:34:44;;;;;;;8.45;3.05;;;23.40;65.10;;;;;;5093691;28;20215;-72
2023/05/20 09:37:10;;;;;;;4.63;3.00;;;23.40;65.60;;;;;;5094290;28;20535;-72
2023/05/20 09:39:58;;;;;;;5.72;3.20;;;23.40;65.20;;;;;;5094437;28;20175;-72
2023/05/20 09:42:35;;;;;;;7.38;3.40;;;23.70;66.10;;;;;;5094143;28;20259;-72
2023/05/20 09:45:03;;;;;;;3.75;3.40;;;23.90;63.10;;;;;;5094363;28;20168;-70
2023/05/20 09:47:30;;;;;;;4.18;3.10;;;24.20;64.80;;;;;;5094274;28;20221;-71
2023/05/20 09:49:56;;;;;;;4.50;2.85;;;24.90;60.10;;;;;;5093153;28;20237;-72
2023/05/20 09:52:22;;;;;;;2.85;2.63;;;25.10;60.00;;;;;;5094337;28;20172;-71
2023/05/20 09:54:49;;;;;;;5.28;2.65;;;25.30;57.10;;;;;;5093963;28;20214;-72
2023/05/20 09:57:15;;;;;;;5.10;3.17;;;24.50;58.80;;;;;;5093778;28;20180;-72
2023/05/20 09:59:42;;;;;;;6.13;2.80;;;24.50;60.50;;;;;;5093747;28;20170;-71
2023/05/20 10:02:08;;;;;;;6.65;3.13;;;23.70;60.70;;;;;;5094196;28;20321;-73
2023/05/20 10:04:37;;;;;;;4.65;3.20;;;24.60;61.20;;;;;;5093509;28;20649;-73
2023/05/20 10:07:29;;;;;;;9.48;3.65;;;24.00;60.10;;;;;;5093571;28;20244;-72
2023/05/20 10:10:01;;;;;;;3.92;2.90;;;23.40;62.90;;;;;;5094160;28;20168;-72
2023/05/20 10:12:30;;;;;;;3.47;3.03;;;23.30;64.10;;;;;;5093272;28;20231;-71
2023/05/20 10:15:22;;;;;;;2.90;2.70;;;22.70;66.60;;;;;;5093887;28;20356;-73
2023/05/20 10:18:08;;;;;;;7.22;2.83;;;23.40;63.90;;;;;;5064102;28;20183;-72
2023/05/20 10:20:47;;;;;;;4.90;3.30;;;23.60;61.90;;;;;;5093169;28;20196;-72
2023/05/20 10:23:23;;;;;;;3.92;3.17;;;22.00;66.10;;;;;;5093776;28;20714;-72
2023/05/20 10:25:53;;;;;;;5.38;3.50;;;22.40;66.10;;;;;;5092924;28;20209;-72
2023/05/20 10:28:35;;;;;;;7.28;3.50;;;22.00;69.30;;;;;;5093338;28;20191;-72
2023/05/20 10:31:01;;;;;;;7.13;3.47;;;22.00;70.80;;;;;;5091516;28;20216;-72
2023/05/20 10:33:28;;;;;;;6.38;3.63;;;22.50;69.70;;;;;;5092317;28;20195;-73
2023/05/20 10:35:58;;;;;;;6.53;3.33;;;22.50;68.20;;;;;;5092715;28;20661;-72
2023/05/20 10:38:25;;;;;;;4.03;2.90;;;22.90;68.90;;;;;;5093020;28;20207;-72
2023/05/20 10:40:51;;;;;;;5.00;3.20;;;22.80;65.60;;;;;;5093291;28;20186;-72
2023/05/20 10:43:26;;;;;;;3.63;3.10;;;22.40;68.30;;;;;;5092607;28;20164;-72
2023/05/20 10:45:57;;;;;;;4.10;3.05;;;22.30;69.30;;;;;;5092898;28;20172;-72
2023/05/20 10:48:24;;;;;;;4.82;2.88;;;22.40;69.20;;;;;;5092551;28;20255;-72
2023/05/20 10:50:52;;;;;;;6.70;3.38;;;22.50;70.00;;;;;;5092604;28;20179;-72
2023/05/20 10:53:22;;;;;;;4.18;3.25;;;22.40;70.20;;;;;;5093324;28;20194;-72
2023/05/20 10:55:53;;;;;;;5.28;3.40;;;22.70;68.90;;;;;;5092574;28;20260;-72
2023/05/20 10:58:23;;;;;;;7.95;3.40;;;22.90;67.10;;;;;;5091327;28;20631;-72
2023/05/20 11:00:53;;;;;;;4.93;3.20;;;23.10;68.80;;;;;;5092858;28;20691;-72
2023/05/20 11:03:22;;;;;;;4.32;3.00;;;23.10;67.20;;;;;;5092708;28;20201;-72
2023/05/20 11:05:48;;;;;;;4.85;3.00;;;23.40;66.40;;;;;;5092434;28;20236;-72
2023/05/20 11:08:14;;;;;;;3.20;3.00;;;23.10;67.70;;;;;;5092960;28;20223;-72
2023/05/20 11:10:41;;;;;;;4.43;2.83;;;23.30;67.70;;;;;;5092739;28;20191;-71
2023/05/20 11:13:07;;;;;;;4.72;2.95;;;23.50;67.60;;;;;;5092753;28;20186;-72
2023/05/20 11:15:35;;;;;;;5.13;2.95;;;22.80;68.40;;;;;;5091823;28;20207;-72
2023/05/20 11:18:03;;;;;;;4.70;3.25;;;22.50;69.90;;;;;;5092614;28;20176;-72
2023/05/20 11:20:29;;;;;;;3.50;3.20;;;22.30;71.60;;;;;;5093208;28;20172;-73
2023/05/20 11:22:55;;;;;;;4.32;3.70;;;22.30;71.60;;;;;;5092147;28;20396;-72
2023/05/20 11:25:22;;;;;;;4.78;2.90;;;22.40;71.40;;;;;;5092250;28;20221;-73
2023/05/20 11:27:49;;;;;;;3.15;2.95;;;22.00;71.80;;;;;;5092783;28;20172;-72
2023/05/20 11:30:15;;;;;;;9.88;3.03;;;22.10;71.60;;;;;;5093836;28;20257;-72
2023/05/20 11:32:56;;;;;;;3.75;2.88;;;22.20;72.10;;;;;;5096343;28;20203;-71
2023/05/20 11:35:23;;;;;;;4.38;3.10;;;22.40;71.70;;;;;;5096651;28;20271;-71
2023/05/20 11:38:08;;;;;;;3.90;3.20;;;22.00;73.30;;;;;;5096575;28;20174;-72
2023/05/20 11:40:37;;;;;;;4.20;3.67;;;22.20;74.60;;;;;;5096038;28;20175;-72
2023/05/20 11:43:03;;;;;;;3.75;3.55;;;22.60;73.10;;;;;;5096215;28;20618;-72
2023/05/20 11:45:39;;;;;;;5.00;3.70;;;22.10;72.60;;;;;;5096128;28;20175;-72
2023/05/20 11:48:05;;;;;;;3.95;3.22;;;22.30;73.50;;;;;;5096825;28;20209;-73
2023/05/20 11:50:35;;;;;;;3.50;2.75;;;22.40;72.40;;;;;;5096090;28;20164;-72
2023/05/20 11:53:23;;;;;;;3.42;3.13;;;22.40;73.60;;;;;;5095742;28;20198;-72
2023/05/20 11:55:51;;;;;;;3.80;3.30;;;22.00;74.40;;;;;;5096133;28;20565;-73
2023/05/20 11:58:35;;;;;;;5.43;3.22;;;22.20;74.90;;;;;;5095766;28;20187;-72
2023/05/20 12:01:01;;;;;;;5.97;3.70;;;22.40;74.70;;;;;;5096217;28;20250;-73
2023/05/20 12:03:26;;;;;;;4.82;3.30;;;21.80;75.90;;;;;;5096308;28;20563;-73
2023/05/20 12:05:52;;;;;;;4.55;3.10;;;21.80;77.20;;;;;;5096344;28;20178;-72
2023/05/20 12:08:17;;;;;;;3.97;3.22;;;21.70;78.20;;;;;;5095917;28;20299;-71
2023/05/20 12:10:46;;;;;;;7.72;3.28;;;21.90;77.80;;;;;;5096071;28;20168;-74
2023/05/20 12:13:12;;;;;;;3.78;3.47;;;21.60;79.40;;;;;;5095830;28;20237;-73
2023/05/20 12:15:38;;;;;;;4.43;3.47;;;21.40;80.90;;;;;;5095469;28;20208;-72
2023/05/20 12:18:05;;;;;;;4.05;3.75;;;21.70;80.60;;;;;;5095899;28;20195;-73
2023/05/20 12:20:32;;;;;;;5.13;3.60;;;21.70;80.60;;;;;;5096277;28;20267;-72
2023/05/20 12:22:59;;;;;;;4.75;3.60;;;21.50;83.20;;;;;;5095500;28;20249;-73
2023/05/20 12:25:25;;;;;;;3.78;3.47;;;21.90;81.30;;;;;;5096022;28;20251;-73
2023/05/20 12:27:51;;;;;;;3.95;3.65;;;21.90;80.60;;;;;;5095162;28;20649;-73
2023/05/20 12:30:20;;;;;;;4.28;3.88;;;21.80;81.70;;;;;;5095548;28;20176;-72
2023/05/20 12:32:48;;;;;;;3.58;3.03;;;21.80;82.10;;;;;;5095804;28;20223;-73
2023/05/20 12:35:14;;;;;;;3.88;3.50;;;21.80;82.90;;;;;;5095285;28;20215;-73
2023/05/20 12:37:41;;;;;;;3.55;3.08;;;22.00;81.50;;;;;;5095068;28;20193;-72
2023/05/20 12:40:08;;;;;;;3.90;3.60;;;21.50;84.00;;;;;;5095711;28;20168;-72
2023/05/20 12:42:37;;;;;;;3.85;3.50;;;21.40;85.70;;;;;;5094867;28;20489;-71
2023/05/20 12:45:04;;;;;;;4.38;3.30;;;21.30;86.10;;;;;;5095418;28;20163;-72
2023/05/20 12:47:31;;;;;;;5.25;3.30;;;21.40;85.70;;;;;;5095263;28;20168;-73